createdAt,value
2022-10-11T00:02:06.259Z,5.28
2022-10-11T00:05:48.009Z,5.00
2022-10-11T00:09:30.147Z,5.55
2022-10-11T00:13:11.969Z,5.00
2022-10-11T00:16:54.053Z,5.15
2022-10-11T00:20:38.034Z,4.57
2022-10-11T00:24:19.790Z,5.35
2022-10-11T00:28:01.494Z,4.55
2022-10-11T00:31:43.369Z,5.20
2022-10-11T00:35:25.147Z,5.45
2022-10-11T00:39:06.824Z,4.35
2022-10-11T00:42:49.704Z,5.10
2022-10-11T00:46:32.356Z,5.03
2022-10-11T00:50:22.693Z,4.57
2022-10-11T00:54:04.588Z,4.65
2022-10-11T00:57:47.523Z,4.47
2022-10-11T01:01:30.967Z,4.00
2022-10-11T01:05:30.669Z,4.25
2022-10-11T01:09:12.495Z,4.20
2022-10-11T01:13:31.872Z,4.68
2022-10-11T01:17:24.942Z,3.78
2022-10-11T01:21:32.195Z,4.30
2022-10-11T01:25:28.072Z,4.47
2022-10-11T01:29:18.586Z,4.68
2022-10-11T01:33:17.154Z,3.97
2022-10-11T01:37:12.361Z,3.70
2022-10-11T01:40:57.654Z,5.18
2022-10-11T01:44:39.934Z,4.13
2022-10-11T01:48:21.651Z,3.90
2022-10-11T01:52:05.291Z,4.40
2022-10-11T01:56:06.039Z,3.80
2022-10-11T01:59:53.712Z,4.30
2022-10-11T02:03:41.237Z,4.35
2022-10-11T02:07:47.956Z,4.70
2022-10-11T02:11:33.901Z,4.70
2022-10-11T02:15:15.981Z,4.38
2022-10-11T02:18:57.871Z,4.47
2022-10-11T02:22:41.679Z,4.63
2022-10-11T02:30:07.601Z,5.80
2022-10-11T02:34:13.232Z,5.28
2022-10-11T02:38:16.878Z,4.38
2022-10-11T02:42:01.213Z,4.82
2022-10-11T02:45:45.138Z,4.40
2022-10-11T02:49:28.776Z,4.40
2022-10-11T02:53:11.098Z,3.67
2022-10-11T02:56:52.795Z,3.78
2022-10-11T03:00:34.695Z,3.47
2022-10-11T03:04:16.570Z,4.40
2022-10-11T03:07:58.236Z,3.80
2022-10-11T03:11:40.107Z,3.58
2022-10-11T03:15:21.777Z,4.20
2022-10-11T03:19:03.598Z,3.40
2022-10-11T03:22:45.559Z,4.00
2022-10-11T03:26:27.305Z,3.55
2022-10-11T03:30:12.540Z,3.50
2022-10-11T03:33:56.806Z,3.50
2022-10-11T03:37:38.524Z,3.80
2022-10-11T03:41:20.382Z,3.42
2022-10-11T03:45:04.972Z,3.75
2022-10-11T03:48:46.645Z,4.18
2022-10-11T03:52:28.699Z,4.10
2022-10-11T03:56:11.423Z,3.85
2022-10-11T03:59:53.223Z,3.75
2022-10-11T04:03:34.893Z,3.30
2022-10-11T04:07:16.623Z,3.50
2022-10-11T04:10:58.765Z,3.95
2022-10-11T04:14:40.617Z,3.58
2022-10-11T04:18:22.299Z,3.75
2022-10-11T04:22:05.146Z,3.30
2022-10-11T04:25:48.271Z,3.70
2022-10-11T04:29:32.627Z,3.08
2022-10-11T04:33:15.161Z,3.33
2022-10-11T04:36:56.896Z,2.75
2022-10-11T04:40:39.039Z,2.88
2022-10-11T04:44:20.788Z,2.97
2022-10-11T04:48:02.509Z,3.58
2022-10-11T04:51:44.609Z,3.50
2022-10-11T04:55:26.337Z,3.30
2022-10-11T04:59:08.011Z,4.30
2022-10-11T05:02:49.918Z,3.28
2022-10-11T05:06:31.609Z,2.83
2022-10-11T05:10:16.498Z,3.70
2022-10-11T05:13:58.220Z,2.88
2022-10-11T05:17:39.927Z,3.28
2022-10-11T05:21:26.426Z,3.08
2022-10-11T05:25:08.317Z,2.83
2022-10-11T05:28:50.149Z,2.72
2022-10-11T05:32:32.220Z,2.90
2022-10-11T05:36:14.141Z,3.83
2022-10-11T05:39:56.141Z,3.45
2022-10-11T05:43:37.826Z,3.22
2022-10-11T05:47:19.497Z,3.17
2022-10-11T05:51:06.476Z,2.88
2022-10-11T05:54:48.662Z,2.97
2022-10-11T05:58:31.321Z,3.88
2022-10-11T06:02:13.325Z,3.35
2022-10-11T06:05:57.219Z,3.83
2022-10-11T06:09:39.749Z,3.83
2022-10-11T06:13:21.638Z,3.50
2022-10-11T06:17:03.298Z,3.63
2022-10-11T06:20:45.094Z,3.55
2022-10-11T06:24:26.866Z,3.92
2022-10-11T06:28:08.643Z,4.45
2022-10-11T06:31:50.547Z,3.20
2022-10-11T06:35:32.239Z,3.10
2022-10-11T06:39:13.989Z,3.42
2022-10-11T06:42:56.829Z,3.17
2022-10-11T06:46:38.549Z,3.13
2022-10-11T06:50:40.801Z,3.88
2022-10-11T06:54:22.081Z,3.50
2022-10-11T06:58:03.847Z,2.80
2022-10-11T07:01:45.887Z,3.92
2022-10-11T07:05:29.392Z,3.65
2022-10-11T07:09:11.062Z,3.88
2022-10-11T07:12:53.136Z,4.32
2022-10-11T07:16:36.098Z,4.45
2022-10-11T07:20:17.986Z,4.10
2022-10-11T07:23:59.866Z,3.95
2022-10-11T07:27:41.565Z,3.63
2022-10-11T07:31:25.104Z,3.80
2022-10-11T07:35:07.094Z,3.15
2022-10-11T07:38:50.122Z,3.75
2022-10-11T07:42:33.407Z,3.70
2022-10-11T07:46:15.634Z,3.47
2022-10-11T07:49:57.551Z,3.58
2022-10-11T07:53:43.462Z,3.42
2022-10-11T07:57:25.137Z,3.25
2022-10-11T08:01:09.784Z,4.22
2022-10-11T08:04:51.475Z,4.63
2022-10-11T08:08:33.204Z,4.57
2022-10-11T08:12:15.993Z,4.65
2022-10-11T08:15:57.759Z,3.10
2022-10-11T08:19:39.667Z,4.72
2022-10-11T08:23:21.454Z,3.42
2022-10-11T08:27:03.150Z,4.10
2022-10-11T08:30:49.168Z,4.22
2022-10-11T08:34:30.898Z,4.25
2022-10-11T08:38:12.738Z,4.20
2022-10-11T08:42:03.620Z,3.75
2022-10-11T08:45:53.590Z,3.67
2022-10-11T08:49:35.363Z,3.40
2022-10-11T08:53:33.136Z,3.72
2022-10-11T08:57:22.485Z,3.40
2022-10-11T09:01:04.577Z,3.28
2022-10-11T09:04:47.642Z,3.38
2022-10-11T09:08:38.146Z,3.43
2022-10-11T09:12:34.242Z,3.28
2022-10-11T09:16:39.339Z,3.78
2022-10-11T09:20:50.647Z,5.03
2022-10-11T09:24:35.052Z,4.40
2022-10-11T09:28:22.906Z,3.40
2022-10-11T09:32:12.842Z,3.97
2022-10-11T09:35:55.595Z,3.83
2022-10-11T09:39:39.254Z,4.13
2022-10-11T09:43:21.250Z,3.63
2022-10-11T09:47:03.165Z,3.30
2022-10-11T09:50:45.185Z,3.15
2022-10-11T09:54:50.191Z,3.63
2022-10-11T09:58:35.603Z,3.45
2022-10-11T10:02:20.510Z,2.65
2022-10-11T10:06:26.377Z,2.47
2022-10-11T10:10:34.385Z,3.10
2022-10-11T10:14:26.358Z,3.38
2022-10-11T10:18:14.323Z,3.67
2022-10-11T10:21:58.213Z,3.00
2022-10-11T10:25:43.468Z,3.22
2022-10-11T10:29:25.485Z,3.63
2022-10-11T10:33:08.574Z,3.17
2022-10-11T10:37:08.416Z,4.50
2022-10-11T10:40:51.969Z,3.88
2022-10-11T10:44:33.656Z,2.90
2022-10-11T10:48:24.677Z,2.92
2022-10-11T10:52:24.465Z,3.17
2022-10-11T10:56:23.851Z,2.38
2022-10-11T11:00:12.524Z,2.95
2022-10-11T11:04:24.883Z,2.70
2022-10-11T11:08:27.847Z,2.42
2022-10-11T11:12:41.708Z,2.60
2022-10-11T11:16:44.866Z,3.10
2022-10-11T11:20:45.814Z,2.63
2022-10-11T11:24:47.163Z,2.10
2022-10-11T11:28:31.669Z,2.13
2022-10-11T11:32:35.146Z,2.40
2022-10-11T11:36:23.843Z,1.88
2022-10-11T11:40:26.973Z,2.33
2022-10-11T11:44:16.420Z,1.80
2022-10-11T11:48:06.678Z,2.10
2022-10-11T11:51:48.678Z,2.88
2022-10-11T11:55:52.744Z,2.45
2022-10-11T12:03:26.799Z,1.70
2022-10-11T12:07:16.279Z,2.03
2022-10-11T12:11:02.331Z,2.00
2022-10-11T12:14:44.355Z,2.53
2022-10-11T12:18:26.037Z,1.90
2022-10-11T12:22:38.358Z,1.55
2022-10-11T12:26:29.115Z,1.70
2022-10-11T12:30:47.906Z,1.63
2022-10-11T12:34:37.301Z,2.20
2022-10-11T12:38:24.952Z,2.30
2022-10-11T12:42:17.901Z,1.95
2022-10-11T12:46:28.556Z,2.53
2022-10-11T12:50:19.919Z,1.77
2022-10-11T12:54:25.990Z,2.30
2022-10-11T12:58:27.988Z,2.25
2022-10-11T13:02:22.322Z,1.90
2022-10-11T13:06:44.726Z,1.75
2022-10-11T13:10:29.299Z,1.73
2022-10-11T13:14:31.254Z,2.20
2022-10-11T13:18:16.321Z,2.20
2022-10-11T13:22:00.662Z,1.67
2022-10-11T13:25:42.343Z,1.77
2022-10-11T13:29:34.135Z,1.88
2022-10-11T13:33:37.535Z,2.08
2022-10-11T13:37:20.781Z,1.67
2022-10-11T13:41:10.258Z,2.25
2022-10-11T13:44:51.923Z,1.83
2022-10-11T13:48:39.693Z,1.58
2022-10-11T13:52:23.887Z,1.67
2022-10-11T13:56:06.512Z,2.45
2022-10-11T13:59:48.382Z,1.30
2022-10-11T14:03:49.866Z,1.92
2022-10-11T14:07:37.590Z,1.75
2022-10-11T14:11:36.058Z,2.22
2022-10-11T14:15:30.888Z,2.40
2022-10-11T14:19:12.570Z,4.90
2022-10-11T14:22:55.409Z,1.85
2022-10-11T14:26:48.225Z,2.07
2022-10-11T14:30:31.598Z,2.20
2022-10-11T14:34:31.817Z,1.85
2022-10-11T14:38:13.477Z,2.20
2022-10-11T14:41:55.240Z,1.70
2022-10-11T14:45:37.069Z,1.85
2022-10-11T14:49:26.832Z,1.77
2022-10-11T14:53:10.415Z,1.75
2022-10-11T15:00:35.062Z,1.63
2022-10-11T15:04:17.718Z,1.60
2022-10-11T15:07:59.415Z,2.20
2022-10-11T15:11:41.267Z,2.10
2022-10-11T15:15:24.869Z,1.98
2022-10-11T15:22:48.881Z,1.95
2022-10-11T15:26:30.643Z,1.85
2022-10-11T15:30:20.661Z,1.95
2022-10-11T15:34:02.334Z,1.58
2022-10-11T15:37:44.042Z,1.90
2022-10-11T15:41:25.878Z,2.72
2022-10-11T15:45:08.226Z,2.25
2022-10-11T15:48:50.866Z,2.83
2022-10-11T15:52:32.902Z,4.45
2022-10-11T15:56:16.829Z,9.00
2022-10-11T15:59:58.503Z,2.20
2022-10-11T16:03:40.224Z,3.03
2022-10-11T16:07:21.932Z,3.80
2022-10-11T16:11:05.534Z,1.75
2022-10-11T16:14:47.453Z,1.95
2022-10-11T16:18:34.900Z,2.60
2022-10-11T16:22:17.454Z,6.43
2022-10-11T16:26:00.492Z,3.55
2022-10-11T16:29:42.282Z,2.22
2022-10-11T16:33:25.365Z,2.70
2022-10-11T16:40:48.754Z,2.40
2022-10-11T16:44:30.464Z,2.53
2022-10-11T16:48:12.128Z,2.92
2022-10-11T16:51:55.118Z,3.20
2022-10-11T16:55:39.502Z,2.90
2022-10-11T16:59:21.190Z,2.83
2022-10-11T17:03:04.284Z,4.18
2022-10-11T17:06:46.061Z,2.97
2022-10-11T17:10:39.379Z,3.80
2022-10-11T17:14:22.017Z,4.35
2022-10-11T17:18:03.900Z,5.85
2022-10-11T17:21:45.743Z,6.18
2022-10-11T17:25:28.097Z,8.00
2022-10-11T17:29:12.990Z,8.20
2022-10-11T17:32:54.844Z,7.80
2022-10-11T17:36:36.534Z,4.90
2022-10-11T17:40:18.599Z,4.22
2022-10-11T17:44:01.220Z,3.92
2022-10-11T17:47:42.946Z,30.60
2022-10-11T17:51:24.778Z,8.32
2022-10-11T17:55:06.808Z,18.95
2022-10-11T17:58:49.238Z,5.60
2022-10-11T18:02:31.247Z,4.25
2022-10-11T18:06:13.668Z,4.38
2022-10-11T18:09:55.532Z,3.58
2022-10-11T18:13:37.244Z,4.40
2022-10-11T18:17:19.086Z,5.05
2022-10-11T18:21:02.394Z,6.10
2022-10-11T18:24:44.071Z,5.13
2022-10-11T18:28:25.910Z,6.38
2022-10-11T18:32:08.069Z,7.53
2022-10-11T18:35:49.744Z,4.68
2022-10-11T18:39:31.407Z,4.10
2022-10-11T18:43:14.495Z,4.97
2022-10-11T18:46:56.166Z,4.47
2022-10-11T18:50:39.098Z,4.00
2022-10-11T18:54:21.259Z,3.53
2022-10-11T18:58:03.312Z,5.05
2022-10-11T19:01:45.361Z,3.78
2022-10-11T19:05:27.699Z,3.58
2022-10-11T19:09:11.395Z,4.60
2022-10-11T19:12:53.320Z,7.63
2022-10-11T19:16:37.534Z,4.95
2022-10-11T19:20:19.354Z,5.07
2022-10-11T19:24:01.125Z,13.70
2022-10-11T19:27:45.798Z,13.57
2022-10-11T19:31:27.655Z,12.13
2022-10-11T19:35:09.847Z,15.25
2022-10-11T19:38:51.729Z,6.57
2022-10-11T19:42:34.023Z,8.38
2022-10-11T19:46:27.368Z,9.05
2022-10-11T19:50:19.871Z,7.45
2022-10-11T19:54:03.929Z,7.27
2022-10-11T19:57:45.591Z,9.18
2022-10-11T20:01:29.653Z,11.45
2022-10-11T20:05:11.394Z,13.00
2022-10-11T20:09:16.634Z,14.45
2022-10-11T20:12:54.985Z,10.20
2022-10-11T20:16:36.799Z,10.68
2022-10-11T20:20:18.970Z,9.30
2022-10-11T20:24:02.274Z,7.85
2022-10-11T20:27:44.002Z,11.77
2022-10-11T20:31:33.106Z,10.48
2022-10-11T20:35:15.029Z,10.25
2022-10-11T20:38:57.235Z,15.05
2022-10-11T20:42:39.186Z,14.82
2022-10-11T20:46:22.436Z,11.60
2022-10-11T20:50:04.554Z,13.70
2022-10-11T20:53:46.366Z,13.30
2022-10-11T20:57:28.098Z,11.48
2022-10-11T21:01:15.137Z,9.60
2022-10-11T21:04:56.937Z,10.27
2022-10-11T21:08:39.283Z,8.43
2022-10-11T21:12:22.196Z,11.27
2022-10-11T21:16:10.811Z,7.10
2022-10-11T21:19:52.556Z,7.18
2022-10-11T21:23:34.589Z,7.80
2022-10-11T21:27:16.290Z,10.82
2022-10-11T21:31:15.267Z,10.48
2022-10-11T21:34:57.036Z,8.25
2022-10-11T21:38:38.815Z,9.10
2022-10-11T21:42:20.664Z,7.43
2022-10-11T21:46:19.389Z,6.82
2022-10-11T21:50:02.305Z,5.55
2022-10-11T21:53:43.965Z,5.20
2022-10-11T21:57:25.641Z,4.38
2022-10-11T22:01:07.535Z,6.10
2022-10-11T22:04:49.259Z,4.97
2022-10-11T22:08:31.017Z,6.20
2022-10-11T22:12:14.338Z,4.93
2022-10-11T22:15:56.393Z,5.67
2022-10-11T22:19:39.255Z,4.25
2022-10-11T22:23:21.293Z,3.67
2022-10-11T22:27:03.049Z,4.03
2022-10-11T22:30:44.870Z,4.38
2022-10-11T22:34:29.786Z,5.45
2022-10-11T22:38:11.467Z,4.50
2022-10-11T22:41:54.183Z,4.95
2022-10-11T22:45:35.854Z,5.13
2022-10-11T22:49:17.673Z,5.18
2022-10-11T22:52:59.704Z,4.60
2022-10-11T22:56:41.378Z,6.10
2022-10-11T23:00:23.261Z,6.05
2022-10-11T23:04:05.073Z,6.30
2022-10-11T23:07:47.178Z,6.10
2022-10-11T23:11:28.999Z,7.78
2022-10-11T23:15:11.057Z,5.97
2022-10-11T23:18:53.496Z,5.50
2022-10-11T23:22:35.386Z,6.82
2022-10-11T23:26:17.162Z,7.00
2022-10-11T23:29:58.826Z,8.38
2022-10-11T23:33:40.634Z,8.95
2022-10-11T23:37:22.358Z,8.55
2022-10-11T23:41:04.365Z,9.77
2022-10-11T23:44:46.077Z,8.32
2022-10-11T23:48:27.789Z,8.43
2022-10-11T23:52:10.612Z,6.68
2022-10-11T23:55:52.313Z,6.50
2022-10-11T23:59:34.034Z,6.32
